Terminal Aerodrome Forecast
Issued by NWS Sioux Falls, SD

Home | Current Version | Previous Version | Text Only | Print | Product List | Glossary On
Versions: 1 2 3 4 5 6 7 8 9 10 11 12 13 14 15 16
109
FTUS43 KFSD 041730
TAFFSD
TAF
KFSD 041730Z 0418/0518 32014KT P6SM BKN015
     FM041900 32012KT P6SM SCT030
      TEMPO 0419/0422 BKN030
     FM042200 31008KT P6SM SCT040
     FM050100 VRB03KT P6SM SKC
     FM051000 16005KT P6SM BKN120
     FM051600 17010KT P6SM OVC050=

USA.gov is the U.S. government's official web portal to all federal, state and local government web resources and services.